createdAt,value
2019-04-11T00:00:52.589Z,6.29
2019-04-11T00:03:19.516Z,6.11
2019-04-11T00:05:46.079Z,6.04
2019-04-11T00:08:14.085Z,6.02
2019-04-11T00:10:39.653Z,5.97
2019-04-11T00:13:18.213Z,6.03
2019-04-11T00:15:33.090Z,5.99
2019-04-11T00:18:00.667Z,5.92
2019-04-11T00:20:26.897Z,5.89
2019-04-11T00:22:54.139Z,5.90
2019-04-11T00:25:20.079Z,5.75
2019-04-11T00:27:46.837Z,5.84
2019-04-11T00:30:13.581Z,5.87
2019-04-11T00:32:41.323Z,5.82
2019-04-11T00:35:07.212Z,5.74
2019-04-11T00:37:34.714Z,5.68
2019-04-11T00:40:01.730Z,5.66
2019-04-11T00:42:28.300Z,5.65
2019-04-11T00:44:54.974Z,5.60
2019-04-11T00:47:20.819Z,5.61
2019-04-11T00:49:48.475Z,5.54
2019-04-11T00:52:14.325Z,5.49
2019-04-11T00:54:41.038Z,5.38
2019-04-11T00:57:08.491Z,5.22
2019-04-11T00:59:34.502Z,5.11
2019-04-11T01:02:01.246Z,5.02
2019-04-11T01:04:27.992Z,4.97
2019-04-11T01:06:54.826Z,4.98
2019-04-11T01:09:21.547Z,4.97
2019-04-11T01:11:48.302Z,4.92
2019-04-11T01:14:15.342Z,4.92
2019-04-11T01:16:48.469Z,4.89
2019-04-11T01:19:14.302Z,4.91
2019-04-11T01:21:40.869Z,4.92
2019-04-11T01:24:07.602Z,4.94
2019-04-11T01:26:35.087Z,4.92
2019-04-11T01:29:01.122Z,4.88
2019-04-11T01:31:29.465Z,4.88
2019-04-11T01:33:56.076Z,4.88
2019-04-11T01:36:22.728Z,4.82
2019-04-11T01:38:52.621Z,4.82
2019-04-11T01:41:18.454Z,4.84
2019-04-11T01:43:53.423Z,4.80
2019-04-11T01:46:11.949Z,4.80
2019-04-11T01:48:44.113Z,4.80
2019-04-11T01:51:11.627Z,4.76
2019-04-11T01:53:37.602Z,4.72
2019-04-11T01:56:05.104Z,4.68
2019-04-11T01:58:31.062Z,4.54
2019-04-11T02:01:08.383Z,4.60
2019-04-11T02:03:46.061Z,4.56
2019-04-11T02:06:13.842Z,4.43
2019-04-11T02:08:39.691Z,4.45
2019-04-11T02:11:07.184Z,4.45
2019-04-11T02:13:34.129Z,4.42
2019-04-11T02:16:00.377Z,4.33
2019-04-11T02:18:27.600Z,4.33
2019-04-11T02:20:54.239Z,4.25
2019-04-11T02:23:33.759Z,4.17
2019-04-11T02:26:07.187Z,4.07
2019-04-11T02:28:34.893Z,4.08
2019-04-11T02:31:02.550Z,4.00
2019-04-11T02:33:27.356Z,4.05
2019-04-11T02:35:54.371Z,3.92
2019-04-11T02:38:21.507Z,3.87
2019-04-11T02:40:49.654Z,3.80
2019-04-11T02:43:15.887Z,3.72
2019-04-11T02:45:54.619Z,3.84
2019-04-11T02:48:09.235Z,3.79
2019-04-11T02:50:36.624Z,3.76
2019-04-11T02:53:02.732Z,3.83
2019-04-11T02:55:29.407Z,3.81
2019-04-11T02:57:56.692Z,3.88
2019-04-11T03:00:21.578Z,3.92
2019-04-11T03:02:50.241Z,3.94
2019-04-11T03:05:16.316Z,3.93
2019-04-11T03:07:42.360Z,3.90
2019-04-11T03:10:11.335Z,3.86
2019-04-11T03:12:36.046Z,3.85
2019-04-11T03:15:14.880Z,3.82
2019-04-11T03:17:34.116Z,3.75
2019-04-11T03:20:09.401Z,3.69
2019-04-11T03:22:22.674Z,3.62
2019-04-11T03:24:49.209Z,3.63
2019-04-11T03:27:15.756Z,3.62
2019-04-11T03:29:43.116Z,3.59
2019-04-11T03:32:51.971Z,3.55
2019-04-11T03:35:23.268Z,3.46
2019-04-11T03:39:52.698Z,3.38
2019-04-11T03:42:16.019Z,3.40
2019-04-11T03:44:28.980Z,3.26
2019-04-11T03:47:06.331Z,3.30
2019-04-11T03:49:27.883Z,3.22
2019-04-11T03:51:45.432Z,3.22
2019-04-11T03:54:11.485Z,3.21
2019-04-11T03:56:37.210Z,3.12
2019-04-11T03:59:04.061Z,3.17
2019-04-11T04:01:31.810Z,3.08
2019-04-11T04:03:58.212Z,3.08
2019-04-11T04:06:25.401Z,3.07
2019-04-11T04:08:50.934Z,3.09
2019-04-11T04:11:22.286Z,3.07
2019-04-11T04:13:53.987Z,3.03
2019-04-11T04:16:35.945Z,3.11
2019-04-11T04:19:05.381Z,3.07
2019-04-11T04:21:40.666Z,3.11
2019-04-11T04:24:25.100Z,3.24
2019-04-11T04:26:52.632Z,3.13
2019-04-11T04:29:18.004Z,3.16
2019-04-11T04:31:44.575Z,3.08
2019-04-11T04:34:11.477Z,3.08
2019-04-11T04:36:38.032Z,2.95
2019-04-11T04:39:05.731Z,2.98
2019-04-11T04:41:39.445Z,2.95
2019-04-11T04:43:59.348Z,2.94
2019-04-11T04:46:39.708Z,2.90
2019-04-11T04:48:53.814Z,2.84
2019-04-11T04:51:20.555Z,2.88
2019-04-11T04:53:45.547Z,2.88
2019-04-11T04:56:13.442Z,2.83
2019-04-11T04:58:39.981Z,2.88
2019-04-11T05:01:06.874Z,2.83
2019-04-11T05:03:34.127Z,2.88
2019-04-11T05:06:01.074Z,2.86
2019-04-11T05:08:27.182Z,2.91
2019-04-11T05:10:53.449Z,2.86
2019-04-11T05:13:19.553Z,2.96
2019-04-11T05:15:46.187Z,3.07
2019-04-11T05:18:15.564Z,3.20
2019-04-11T05:20:40.717Z,3.30
2019-04-11T05:23:06.482Z,3.23
2019-04-11T05:25:33.146Z,3.24
2019-04-11T05:28:00.170Z,3.35
2019-04-11T05:30:27.208Z,3.35
2019-04-11T05:32:53.503Z,3.35
2019-04-11T05:35:20.173Z,3.36
2019-04-11T05:37:47.182Z,3.42
2019-04-11T05:40:14.814Z,3.51
2019-04-11T05:42:41.507Z,3.53
2019-04-11T05:45:14.418Z,3.59
2019-04-11T05:47:35.151Z,3.80
2019-04-11T05:50:18.033Z,3.93
2019-04-11T05:52:44.699Z,3.98
2019-04-11T05:55:13.343Z,4.02
2019-04-11T05:57:41.846Z,4.18
2019-04-11T06:00:09.745Z,4.13
2019-04-11T06:02:41.587Z,4.20
2019-04-11T06:05:13.228Z,4.24
2019-04-11T06:07:52.883Z,4.27
2019-04-11T06:10:22.202Z,4.51
2019-04-11T06:13:10.076Z,4.58
2019-04-11T06:15:42.221Z,4.56
2019-04-11T06:18:24.123Z,4.89
2019-04-11T06:20:45.225Z,4.86
2019-04-11T06:23:21.432Z,4.73
2019-04-11T06:26:09.199Z,4.86
2019-04-11T06:28:36.104Z,4.88
2019-04-11T06:31:26.337Z,5.05
2019-04-11T06:33:56.698Z,5.17
2019-04-11T06:36:45.450Z,5.13
2019-04-11T06:39:23.634Z,5.17
2019-04-11T06:42:11.055Z,5.19
2019-04-11T06:44:43.454Z,5.50
2019-04-11T06:47:34.864Z,5.54
2019-04-11T06:50:09.107Z,5.74
2019-04-11T06:52:36.997Z,5.77
2019-04-11T06:55:26.479Z,5.89
2019-04-11T06:57:54.183Z,6.06
2019-04-11T07:00:21.017Z,5.94
2019-04-11T07:02:53.018Z,6.23
2019-04-11T07:05:20.375Z,6.16
2019-04-11T07:07:49.688Z,6.27
2019-04-11T07:10:18.318Z,6.26
2019-04-11T07:12:52.466Z,6.44
2019-04-11T07:15:27.130Z,6.52
2019-04-11T07:17:58.934Z,6.51
2019-04-11T07:20:31.447Z,6.79
2019-04-11T07:23:03.939Z,6.75
2019-04-11T07:25:55.961Z,6.80
2019-04-11T07:28:35.974Z,6.70
2019-04-11T07:31:08.508Z,7.14
2019-04-11T07:33:59.087Z,7.21
2019-04-11T07:36:31.536Z,7.20
2019-04-11T07:39:03.193Z,7.45
2019-04-11T07:41:34.750Z,7.47
2019-04-11T07:44:01.218Z,7.42
2019-04-11T07:46:40.733Z,7.50
2019-04-11T07:49:08.181Z,7.65
2019-04-11T07:51:40.778Z,7.69
2019-04-11T07:54:09.414Z,7.56
2019-04-11T07:56:46.337Z,7.83
2019-04-11T07:59:22.558Z,7.67
2019-04-11T08:02:13.891Z,7.61
2019-04-11T08:04:55.645Z,7.95
2019-04-11T08:07:34.711Z,8.10
2019-04-11T08:10:06.429Z,8.28
2019-04-11T08:12:33.878Z,8.31
2019-04-11T08:15:07.083Z,8.51
2019-04-11T08:17:38.993Z,8.33
2019-04-11T08:22:30.721Z,8.64
2019-04-11T08:25:02.370Z,8.73
2019-04-11T08:27:33.520Z,8.82
2019-04-11T08:30:00.337Z,8.98
2019-04-11T08:32:31.899Z,9.01
2019-04-11T08:35:08.154Z,8.95
2019-04-11T08:37:53.922Z,9.08
2019-04-11T08:40:19.875Z,9.12
2019-04-11T08:42:52.852Z,9.26
2019-04-11T08:45:19.627Z,9.29
2019-04-11T08:47:52.138Z,9.64
2019-04-11T08:50:16.811Z,9.63
2019-04-11T08:52:54.126Z,9.34
2019-04-11T08:55:23.529Z,9.44
2019-04-11T08:57:54.587Z,9.52
2019-04-11T09:00:37.995Z,9.78
2019-04-11T09:03:09.878Z,9.89
2019-04-11T09:05:51.300Z,9.90
2019-04-11T09:08:24.707Z,9.88
2019-04-11T09:11:01.244Z,10.08
2019-04-11T09:13:33.666Z,10.26
2019-04-11T09:16:06.265Z,10.24
2019-04-11T09:18:33.008Z,10.28
2019-04-11T09:21:22.319Z,10.40
2019-04-11T09:23:48.871Z,10.53
2019-04-11T09:26:21.500Z,10.65
2019-04-11T09:28:51.468Z,10.61
2019-04-11T09:31:33.765Z,10.96
2019-04-11T09:34:11.622Z,10.84
2019-04-11T09:36:43.258Z,11.00
2019-04-11T09:39:30.966Z,10.84
2019-04-11T09:42:18.692Z,11.00
2019-04-11T09:44:53.620Z,10.84
2019-04-11T09:47:40.738Z,11.16
2019-04-11T09:50:08.186Z,11.22
2019-04-11T09:52:40.940Z,10.95
2019-04-11T09:55:19.241Z,11.24
2019-04-11T09:57:50.435Z,11.51
2019-04-11T10:00:38.798Z,10.97
2019-04-11T10:03:25.631Z,11.43
2019-04-11T10:06:05.471Z,11.39
2019-04-11T10:08:39.641Z,11.47
2019-04-11T10:11:26.355Z,11.56
2019-04-11T10:14:13.481Z,11.69
2019-04-11T10:19:24.767Z,11.57
2019-04-11T10:21:58.518Z,11.46
2019-04-11T10:24:32.629Z,11.36
2019-04-11T10:27:06.653Z,11.42
2019-04-11T10:29:38.190Z,11.41
2019-04-11T10:32:06.676Z,11.58
2019-04-11T10:34:37.555Z,11.74
2019-04-11T10:37:09.743Z,11.67
2019-04-11T10:39:59.983Z,11.70
2019-04-11T10:42:26.634Z,12.03
2019-04-11T10:45:05.170Z,11.86
2019-04-11T10:47:33.292Z,11.76
2019-04-11T10:50:13.333Z,11.77
2019-04-11T10:52:44.584Z,11.85
2019-04-11T10:55:15.507Z,12.26
2019-04-11T10:57:44.621Z,12.01
2019-04-11T11:00:18.931Z,12.01
2019-04-11T11:02:51.064Z,12.08
2019-04-11T11:05:19.454Z,11.92
2019-04-11T11:07:45.821Z,12.04
2019-04-11T11:10:15.758Z,12.12
2019-04-11T11:13:01.457Z,12.09
2019-04-11T11:15:31.550Z,11.91
2019-04-11T11:18:31.883Z,11.82
2019-04-11T11:20:39.914Z,11.87
2019-04-11T11:23:22.763Z,11.79
2019-04-11T11:26:00.607Z,11.89
2019-04-11T11:28:27.175Z,12.22
2019-04-11T11:30:59.756Z,12.16
2019-04-11T11:33:28.444Z,12.16
2019-04-11T11:36:15.255Z,12.08
2019-04-11T11:38:46.071Z,12.03
2019-04-11T11:41:18.673Z,12.23
2019-04-11T11:43:45.622Z,12.06
2019-04-11T11:46:29.791Z,11.79
2019-04-11T11:49:00.458Z,11.92
2019-04-11T11:51:35.256Z,12.11
2019-04-11T11:54:07.338Z,12.55
2019-04-11T11:56:35.251Z,12.37
2019-04-11T11:59:09.576Z,12.18
2019-04-11T12:01:42.271Z,12.37
2019-04-11T12:04:23.853Z,12.09
2019-04-11T12:06:48.985Z,12.35
2019-04-11T12:09:30.839Z,12.29
2019-04-11T12:12:02.323Z,12.34
2019-04-11T12:14:49.653Z,12.47
2019-04-11T12:17:37.710Z,12.65
2019-04-11T12:20:14.213Z,12.38
2019-04-11T12:22:40.370Z,12.42
2019-04-11T12:25:16.523Z,12.36
2019-04-11T12:27:54.150Z,12.49
2019-04-11T12:30:35.999Z,12.51
2019-04-11T12:33:15.931Z,12.34
2019-04-11T12:35:47.062Z,12.68
2019-04-11T12:38:24.503Z,12.48
2019-04-11T12:40:53.938Z,12.21
2019-04-11T12:43:20.777Z,12.59
2019-04-11T12:45:53.327Z,12.84
2019-04-11T12:48:21.715Z,12.47
2019-04-11T12:51:12.089Z,12.68
2019-04-11T12:53:39.543Z,12.48
2019-04-11T12:56:22.895Z,12.58
2019-04-11T12:58:55.420Z,12.91
2019-04-11T13:01:43.715Z,12.69
2019-04-11T13:04:31.043Z,12.98
2019-04-11T13:07:03.614Z,12.84
2019-04-11T13:09:41.101Z,13.23
2019-04-11T13:12:09.366Z,13.01
2019-04-11T13:14:39.744Z,12.78
2019-04-11T13:17:07.974Z,12.66
2019-04-11T13:20:04.577Z,12.86
2019-04-11T13:22:24.866Z,12.84
2019-04-11T13:25:02.478Z,13.17
2019-04-11T13:27:35.594Z,13.42
2019-04-11T13:30:17.379Z,13.51
2019-04-11T13:32:48.114Z,13.41
2019-04-11T13:35:34.694Z,13.14
2019-04-11T13:38:04.670Z,13.14
2019-04-11T13:40:56.099Z,12.99
2019-04-11T13:43:28.747Z,13.04
2019-04-11T13:46:05.727Z,13.17
2019-04-11T13:48:38.208Z,13.22
2019-04-11T13:51:09.235Z,12.95
2019-04-11T13:53:59.534Z,12.80
2019-04-11T13:56:34.266Z,12.99
2019-04-11T13:59:22.627Z,12.93
2019-04-11T14:01:50.709Z,13.30
2019-04-11T14:04:22.023Z,13.31
2019-04-11T14:06:50.104Z,13.24
2019-04-11T14:09:24.459Z,12.86
2019-04-11T14:11:53.412Z,12.86
2019-04-11T14:14:39.826Z,13.12
2019-04-11T14:17:17.545Z,13.57
2019-04-11T14:19:50.022Z,13.32
2019-04-11T14:22:17.343Z,13.08
2019-04-11T14:24:57.095Z,13.31
2019-04-11T14:27:24.984Z,13.62
2019-04-11T14:30:16.343Z,13.57
2019-04-11T14:32:44.854Z,13.62
2019-04-11T14:35:31.087Z,13.20
2019-04-11T14:38:06.502Z,13.23
2019-04-11T14:41:01.879Z,13.27
2019-04-11T14:43:27.682Z,13.29
2019-04-11T14:46:15.986Z,13.26
2019-04-11T14:48:44.774Z,13.28
2019-04-11T14:51:31.958Z,13.49
2019-04-11T14:54:08.615Z,13.34
2019-04-11T14:56:37.226Z,13.68
2019-04-11T14:59:26.074Z,13.59
2019-04-11T15:01:57.663Z,13.30
2019-04-11T15:04:50.003Z,13.27
2019-04-11T15:07:16.982Z,13.06
2019-04-11T15:09:54.226Z,13.12
2019-04-11T15:12:23.223Z,13.22
2019-04-11T15:15:15.486Z,13.21
2019-04-11T15:17:42.414Z,12.92
2019-04-11T15:20:33.824Z,13.03
2019-04-11T15:23:02.106Z,13.17
2019-04-11T15:25:47.374Z,12.82
2019-04-11T15:28:19.995Z,12.78
2019-04-11T15:30:49.496Z,12.83
2019-04-11T15:33:40.587Z,12.94
2019-04-11T15:36:07.452Z,13.28
2019-04-11T15:38:48.295Z,13.30
2019-04-11T15:41:15.114Z,13.17
2019-04-11T15:43:47.582Z,12.74
2019-04-11T15:46:18.194Z,12.93
2019-04-11T15:49:05.429Z,12.89
2019-04-11T15:51:36.452Z,12.66
2019-04-11T15:54:25.900Z,12.48
2019-04-11T15:56:59.847Z,12.46
2019-04-11T15:59:32.274Z,12.58
2019-04-11T16:02:04.942Z,12.81
2019-04-11T16:04:48.000Z,12.93
2019-04-11T16:07:37.748Z,12.83
2019-04-11T16:10:04.174Z,12.71
2019-04-11T16:12:39.524Z,12.42
2019-04-11T16:15:09.534Z,12.55
2019-04-11T16:18:00.970Z,12.56
2019-04-11T16:20:27.811Z,12.59
2019-04-11T16:23:09.031Z,12.44
2019-04-11T16:25:35.846Z,12.29
2019-04-11T16:28:08.580Z,12.22
2019-04-11T16:30:39.786Z,12.15
2019-04-11T16:33:22.079Z,12.13
2019-04-11T16:35:57.255Z,12.08
2019-04-11T16:38:23.242Z,12.10
2019-04-11T16:41:14.522Z,12.04
2019-04-11T16:43:42.710Z,12.14
2019-04-11T16:46:15.363Z,12.07
2019-04-11T16:48:42.180Z,11.98
2019-04-11T16:51:09.043Z,12.06
2019-04-11T16:53:35.871Z,11.98
2019-04-11T16:56:02.933Z,11.92
2019-04-11T16:58:30.687Z,11.75
2019-04-11T17:00:57.487Z,11.65
2019-04-11T17:03:25.157Z,11.48
2019-04-11T17:05:58.018Z,11.47
2019-04-11T17:08:36.054Z,11.42
2019-04-11T17:11:10.767Z,11.46
2019-04-11T17:13:37.580Z,11.42
2019-04-11T17:16:05.710Z,11.35
2019-04-11T17:18:34.338Z,11.28
2019-04-11T17:20:59.375Z,11.18
2019-04-11T17:23:26.203Z,11.08
2019-04-11T17:25:53.679Z,11.01
2019-04-11T17:28:22.643Z,10.96
2019-04-11T17:30:46.799Z,10.91
2019-04-11T17:33:13.663Z,10.82
2019-04-11T17:35:40.501Z,10.76
2019-04-11T17:38:08.130Z,10.74
2019-04-11T17:40:35.061Z,10.64
2019-04-11T17:43:01.072Z,10.59
2019-04-11T17:45:27.874Z,10.46
2019-04-11T17:47:54.787Z,10.37
2019-04-11T17:50:21.510Z,10.37
2019-04-11T17:52:48.351Z,10.26
2019-04-11T17:55:15.159Z,10.15
2019-04-11T17:57:41.979Z,10.11
2019-04-11T18:00:10.687Z,9.98
2019-04-11T18:02:38.992Z,9.86
2019-04-11T18:05:04.385Z,9.85
2019-04-11T18:07:31.243Z,9.72
2019-04-11T18:09:58.054Z,9.72
2019-04-11T18:12:26.236Z,9.67
2019-04-11T18:14:51.722Z,9.52
2019-04-11T18:17:18.540Z,9.52
2019-04-11T18:19:45.334Z,9.58
2019-04-11T18:22:13.715Z,9.45
2019-04-11T18:24:38.964Z,9.40
2019-04-11T18:27:05.774Z,9.39
2019-04-11T18:29:32.594Z,9.28
2019-04-11T18:31:59.399Z,9.15
2019-04-11T18:34:26.215Z,9.06
2019-04-11T18:36:53.021Z,9.02
2019-04-11T18:39:19.829Z,9.09
2019-04-11T18:41:46.634Z,9.06
2019-04-11T18:44:13.474Z,8.86
2019-04-11T18:46:40.299Z,8.83
2019-04-11T18:49:07.119Z,8.74
2019-04-11T18:51:33.934Z,8.72
2019-04-11T18:54:00.816Z,8.64
2019-04-11T18:56:27.640Z,8.50
2019-04-11T18:58:54.433Z,8.44
2019-04-11T19:01:21.242Z,8.43
2019-04-11T19:03:48.051Z,8.35
2019-04-11T19:06:14.867Z,8.23
2019-04-11T19:08:43.485Z,8.23
2019-04-11T19:11:08.487Z,8.13
2019-04-11T19:13:35.302Z,7.94
2019-04-11T19:16:02.114Z,7.78
2019-04-11T19:18:28.934Z,7.67
2019-04-11T19:20:55.742Z,7.58
2019-04-11T19:23:22.557Z,7.52
2019-04-11T19:25:49.462Z,7.38
2019-04-11T19:28:16.275Z,7.26
2019-04-11T19:30:43.331Z,7.27
2019-04-11T19:33:10.143Z,7.32
2019-04-11T19:35:41.321Z,7.27
2019-04-11T19:38:04.663Z,7.26
2019-04-11T19:40:31.582Z,7.11
2019-04-11T19:42:58.402Z,7.19
2019-04-11T19:45:25.211Z,7.07
2019-04-11T19:47:52.807Z,7.08
2019-04-11T19:50:18.855Z,7.05
2019-04-11T19:52:46.029Z,7.07
2019-04-11T19:55:18.170Z,7.14
2019-04-11T19:57:44.982Z,7.21
2019-04-11T20:00:12.262Z,7.19
2019-04-11T20:02:39.063Z,7.10
2019-04-11T20:05:05.874Z,7.08
2019-04-11T20:07:32.871Z,7.10
2019-04-11T20:10:00.886Z,6.96
2019-04-11T20:12:27.781Z,6.80
2019-04-11T20:14:53.602Z,6.64
2019-04-11T20:17:20.428Z,6.52
2019-04-11T20:19:47.241Z,6.45
2019-04-11T20:22:14.050Z,6.52
2019-04-11T20:24:45.934Z,6.49
2019-04-11T20:27:08.078Z,6.43
2019-04-11T20:29:35.030Z,6.62
2019-04-11T20:32:01.847Z,6.53
2019-04-11T20:34:28.650Z,6.57
2019-04-11T20:36:55.497Z,6.49
2019-04-11T20:39:22.297Z,6.55
2019-04-11T20:41:53.169Z,6.54
2019-04-11T20:44:15.951Z,6.54
2019-04-11T20:46:42.763Z,6.44
2019-04-11T20:49:09.596Z,6.41
2019-04-11T20:51:36.468Z,6.32
2019-04-11T20:54:06.956Z,6.18
2019-04-11T20:56:30.103Z,6.16
2019-04-11T20:58:56.913Z,6.03
2019-04-11T21:01:26.173Z,6.04
2019-04-11T21:03:50.809Z,6.04
2019-04-11T21:06:17.619Z,5.99
2019-04-11T21:08:44.438Z,6.00
2019-04-11T21:11:11.234Z,5.97
2019-04-11T21:13:38.485Z,5.99
2019-04-11T21:16:04.850Z,5.95
2019-04-11T21:18:31.664Z,5.85
2019-04-11T21:20:58.875Z,5.77
2019-04-11T21:23:29.510Z,5.79
2019-04-11T21:25:52.502Z,5.76
2019-04-11T21:28:19.386Z,5.81
2019-04-11T21:30:46.186Z,5.73
2019-04-11T21:33:13.035Z,5.60
2019-04-11T21:35:39.793Z,5.52
2019-04-11T21:38:06.590Z,5.38
2019-04-11T21:40:35.623Z,5.29
2019-04-11T21:43:00.235Z,5.23
2019-04-11T21:45:27.039Z,5.27
2019-04-11T21:47:53.998Z,5.15
2019-04-11T21:50:20.798Z,5.16
2019-04-11T21:52:47.610Z,5.20
2019-04-11T21:55:16.106Z,5.00
2019-04-11T21:57:41.222Z,4.92
2019-04-11T22:00:12.952Z,4.96
2019-04-11T22:02:39.750Z,5.47
2019-04-11T22:05:06.562Z,5.74
2019-04-11T22:07:33.375Z,5.77
2019-04-11T22:10:00.192Z,5.76
2019-04-11T22:12:26.998Z,5.64
2019-04-11T22:14:53.798Z,5.40
2019-04-11T22:17:20.641Z,5.22
2019-04-11T22:19:47.444Z,5.13
2019-04-11T22:22:14.247Z,4.84
2019-04-11T22:24:41.059Z,4.63
2019-04-11T22:27:07.874Z,4.78
2019-04-11T22:29:34.674Z,4.95
2019-04-11T22:32:01.488Z,4.83
2019-04-11T22:34:34.826Z,4.93
2019-04-11T22:37:01.631Z,4.95
2019-04-11T22:39:28.953Z,5.21
2019-04-11T22:41:55.399Z,5.47
2019-04-11T22:44:22.242Z,5.55
2019-04-11T22:46:48.995Z,5.55
2019-04-11T22:49:15.815Z,5.55
2019-04-11T22:51:43.498Z,5.60
2019-04-11T22:54:12.991Z,5.44
2019-04-11T22:56:36.006Z,5.45
2019-04-11T22:59:02.726Z,5.29
2019-04-11T23:01:29.470Z,5.28
2019-04-11T23:03:58.742Z,5.24
2019-04-11T23:06:25.488Z,5.13
2019-04-11T23:08:52.202Z,4.89
2019-04-11T23:11:18.943Z,4.60
2019-04-11T23:13:46.273Z,4.61
2019-04-11T23:16:14.397Z,4.58
2019-04-11T23:18:39.134Z,4.59
2019-04-11T23:21:05.874Z,4.47
2019-04-11T23:23:32.605Z,4.50
2019-04-11T23:25:59.354Z,4.53
2019-04-11T23:28:26.087Z,4.57
2019-04-11T23:30:52.838Z,4.52
2019-04-11T23:33:21.412Z,4.44
2019-04-11T23:35:46.330Z,4.61
2019-04-11T23:38:13.050Z,4.42
2019-04-11T23:40:39.797Z,4.34
2019-04-11T23:43:06.585Z,4.39
2019-04-11T23:45:33.317Z,4.38
2019-04-11T23:48:00.179Z,4.21
2019-04-11T23:50:26.922Z,4.33
2019-04-11T23:52:56.986Z,4.12
2019-04-11T23:55:20.377Z,4.11
2019-04-11T23:57:47.109Z,4.36
